| time (UTC) | temp C | wind direction | speed KPH | gust KPH | rain 1hr cm | rain 24hr cm | rain mn cm | humidity % | barometer mb |
| 20260508025344 | 18 | 279 | 4.8 | 8.0 | 0.00 | 0.00 | 0.00 | 69 | |
| 20260508024740 | 19 | 285 | 4.8 | 8.0 | 0.00 | 0.00 | 0.00 | 68 | |
| 20260508024132 | 19 | 277 | 6.4 | 9.7 | 0.00 | 0.00 | 0.00 | 67 | |
| 20260508023729 | 20 | 278 | 4.8 | 8.0 | 0.00 | 0.00 | 0.00 | 67 | |
| 20260508023527 | 20 | 272 | 6.4 | 8.0 | 0.00 | 0.00 | 0.00 | 66 | |
| 20260508023325 | 20 | 275 | 6.4 | 8.0 | 0.00 | 0.00 | 0.00 | 66 | |
| 20260508023123 | 20 | 293 | 3.2 | 9.7 | 0.00 | 0.00 | 0.00 | 65 | |
| 20260508022921 | 20 | 278 | 0.0 | 9.7 | 0.00 | 0.00 | 0.00 | 65 | |
| 20260508022719 | 20 | 278 | 4.8 | 11.3 | 0.00 | 0.00 | 0.00 | 65 | |
| 20260508022519 | 20 | 289 | 4.8 | 11.3 | 0.00 | 0.00 | 0.00 | 65 | |
| 20260508022114 | 20 | 282 | 8.0 | 9.7 | 0.00 | 0.00 | 0.00 | 64 | |
| 20260508021911 | 20 | 271 | 4.8 | 9.7 | 0.00 | 0.00 | 0.00 | 63 | |
| 20260508021709 | 20 | 271 | 4.8 | 12.9 | 0.00 | 0.00 | 0.00 | 63 | |
| 20260508021507 | 20 | 279 | 4.8 | 12.9 | 0.00 | 0.00 | 0.00 | 63 | |
| 20260508021306 | 20 | 262 | 6.4 | 11.3 | 0.00 | 0.00 | 0.00 | 63 | |
| 20260508021104 | 20 | 270 | 6.4 | 11.3 | 0.00 | 0.00 | 0.00 | 63 | |
| 20260508020902 | 20 | 271 | 9.7 | 11.3 | 0.00 | 0.00 | 0.00 | 62 | |
| 20260508020700 | 21 | 278 | 6.4 | 9.7 | 0.00 | 0.00 | 0.00 | 62 | |
| 20260508020458 | 21 | 291 | 6.4 | 9.7 | 0.00 | 0.00 | 0.00 | 61 | |
| 20260508015852 | 21 | 292 | 3.2 | 12.9 | 0.00 | 0.00 | 0.00 | 61 | |
| 20260508015650 | 21 | 268 | 6.4 | 11.3 | 0.00 | 0.00 | 0.00 | 61 | |
| 20260508015448 | 21 | 272 | 4.8 | 11.3 | 0.00 | 0.00 | 0.00 | 61 | |
| 20260508015044 | 21 | 267 | 6.4 | 14.5 | 0.00 | 0.00 | 0.00 | 60 | |
| 20260508014842 | 21 | 250 | 6.4 | 14.5 | 0.00 | 0.00 | 0.00 | 61 | |
| 20260508014438 | 21 | 293 | 4.8 | 12.9 | 0.00 | 0.00 | 0.00 | 60 | |
| 20260508014236 | 21 | 285 | 8.0 | 14.5 | 0.00 | 0.00 | 0.00 | 59 | |
| 20260508014034 | 21 | 274 | 9.7 | 14.5 | 0.00 | 0.00 | 0.00 | 59 | |
| 20260508013832 | 21 | 271 | 9.7 | 14.5 | 0.00 | 0.00 | 0.00 | 59 | |
| 20260508013630 | 21 | 281 | 6.4 | 11.3 | 0.00 | 0.00 | 0.00 | 58 | |
| 20260508013429 | 21 | 296 | 1.6 | 11.3 | 0.00 | 0.00 | 0.00 | 58 | |
| 20260508013227 | 21 | 265 | 11.3 | 12.9 | 0.00 | 0.00 | 0.00 | 58 | |
| 20260508013025 | 21 | 267 | 6.4 | 12.9 | 0.00 | 0.00 | 0.00 | 58 | |
| 20260508012823 | 21 | 306 | 1.6 | 12.9 | 0.00 | 0.00 | 0.00 | 58 | |
| 20260508012418 | 21 | 277 | 6.4 | 14.5 | 0.00 | 0.00 | 0.00 | 58 | |
| 20260508012217 | 22 | 265 | 9.7 | 12.9 | 0.00 | 0.00 | 0.00 | 57 | |
| 20260508012015 | 22 | 260 | 8.0 | 12.9 | 0.00 | 0.00 | 0.00 | 58 | |
| 20260508011813 | 22 | 293 | 6.4 | 12.9 | 0.00 | 0.00 | 0.00 | 58 | |
| 20260508011611 | 22 | 277 | 6.4 | 12.9 | 0.00 | 0.00 | 0.00 | 58 | |
| 20260508011409 | 21 | 279 | 11.3 | 12.9 | 0.00 | 0.00 | 0.00 | 58 | |
| 20260508011207 | 21 | 282 | 8.0 | 16.1 | 0.00 | 0.00 | 0.00 | 57 | |
| 20260508011004 | 22 | 285 | 6.4 | 16.1 | 0.00 | 0.00 | 0.00 | 57 | |
| 20260508010601 | 21 | 278 | 8.0 | 16.1 | 0.00 | 0.00 | 0.00 | 58 | |
| 20260508010359 | 21 | 293 | 8.0 | 16.1 | 0.00 | 0.00 | 0.00 | 58 | |
| 20260508010157 | 21 | 286 | 6.4 | 16.1 | 0.00 | 0.00 | 0.00 | 58 | |
| 20260508005955 | 21 | 279 | 9.7 | 16.1 | 0.00 | 0.00 | 0.00 | 58 | |
| 20260508005551 | 22 | 289 | 9.7 | 17.7 | 0.00 | 0.00 | 0.00 | 56 | |
| 20260508004945 | 22 | 267 | 9.7 | 16.1 | 0.00 | 0.00 | 0.00 | 57 | |
| 20260508004743 | 22 | 261 | 12.9 | 17.7 | 0.00 | 0.00 | 0.00 | 58 | |
| 20260508004542 | 21 | 279 | 11.3 | 17.7 | 0.00 | 0.00 | 0.00 | 57 | |
| 20260508004339 | 22 | 303 | 4.8 | 17.7 | 0.00 | 0.00 | 0.00 | 56 | |
| 20260508004138 | 22 | 258 | 12.9 | 17.7 | 0.00 | 0.00 | 0.00 | 56 | |
| 20260508003935 | 22 | 267 | 6.4 | 17.7 | 0.00 | 0.00 | 0.00 | 55 | |
| 20260508003734 | 22 | 261 | 9.7 | 17.7 | 0.00 | 0.00 | 0.00 | 55 | |
| 20260508003531 | 22 | 243 | 11.3 | 17.7 | 0.00 | 0.00 | 0.00 | 56 | |
| 20260508003330 | 22 | 258 | 12.9 | 17.7 | 0.00 | 0.00 | 0.00 | 56 | |
| 20260508002924 | 22 | 288 | 9.7 | 19.3 | 0.00 | 0.00 | 0.00 | 55 | |
| 20260508002722 | 22 | 279 | 12.9 | 17.7 | 0.00 | 0.00 | 0.00 | 55 | |
| 20260508002320 | 22 | 267 | 11.3 | 20.9 | 0.00 | 0.00 | 0.00 | 55 | |
| 20260508002117 | 22 | 264 | 14.5 | 20.9 | 0.00 | 0.00 | 0.00 | 55 | |
| 20260508001916 | 22 | 270 | 14.5 | 20.9 | 0.00 | 0.00 | 0.00 | 54 | |
| 20260508001714 | 22 | 274 | 11.3 | 19.3 | 0.00 | 0.00 | 0.00 | 53 | |
| 20260508001511 | 22 | 302 | 3.2 | 19.3 | 0.00 | 0.00 | 0.00 | 53 | |
| 20260508001108 | 23 | 274 | 14.5 | 19.3 | 0.00 | 0.00 | 0.00 | 53 | |
| 20260508000300 | 23 | 272 | 11.3 | 19.3 | 0.00 | 0.00 | 0.00 | 53 | |
| 20260508000056 | 22 | 286 | 11.3 | 19.3 | 0.00 | 0.00 | 0.00 | 52 | |
| 20260507235854 | 22 | 271 | 12.9 | 19.3 | 0.00 | 0.00 | 0.00 | 53 | |
| 20260507235654 | 22 | 264 | 19.3 | 20.9 | 0.00 | 0.00 | 0.00 | 52 | |
| 20260507235251 | 23 | 278 | 11.3 | 17.7 | 0.00 | 0.00 | 0.00 | 52 | |
| 20260507235049 | 23 | 282 | 14.5 | 17.7 | 0.00 | 0.00 | 0.00 | 53 | |
| 20260507234846 | 22 | 271 | 14.5 | 17.7 | 0.00 | 0.00 | 0.00 | 52 | |
| 20260507234645 | 23 | 265 | 16.1 | 20.9 | 0.00 | 0.00 | 0.00 | 52 | |
| 20260507234443 | 23 | 261 | 8.0 | 20.9 | 0.00 | 0.00 | 0.00 | 52 | |
| 20260507234240 | 23 | 265 | 11.3 | 20.9 | 0.00 | 0.00 | 0.00 | 52 | |
| 20260507233838 | 23 | 264 | 16.1 | 20.9 | 0.00 | 0.00 | 0.00 | 53 | |
| 20260507233635 | 23 | 261 | 17.7 | 20.9 | 0.00 | 0.00 | 0.00 | 53 | |
| 20260507233432 | 23 | 262 | 19.3 | 20.9 | 0.00 | 0.00 | 0.00 | 51 | |
| 20260507233029 | 23 | 265 | 14.5 | 20.9 | 0.00 | 0.00 | 0.00 | 52 | |
| 20260507232836 | 23 | 262 | 16.1 | 20.9 | 0.00 | 0.00 | 0.00 | 52 | |
| 20260507232827 | 23 | 262 | 16.1 | 20.9 | 0.00 | 0.00 | 0.00 | 52 | |
| 20260507232625 | 23 | 261 | 16.1 | 22.5 | 0.00 | 0.00 | 0.00 | 51 | |
| 20260507232221 | 23 | 298 | 12.9 | 19.3 | 0.00 | 0.00 | 0.00 | 52 | |
| 20260507232019 | 23 | 282 | 14.5 | 19.3 | 0.00 | 0.00 | 0.00 | 52 | |
| 20260507231817 | 22 | 268 | 9.7 | 20.9 | 0.00 | 0.00 | 0.00 | 52 | |
| 20260507231413 | 23 | 272 | 8.0 | 20.9 | 0.00 | 0.00 | 0.00 | 52 | |
| 20260507231009 | 23 | 254 | 16.1 | 20.9 | 0.00 | 0.00 | 0.00 | 53 | |
| 20260507230806 | 23 | 258 | 16.1 | 20.9 | 0.00 | 0.00 | 0.00 | 52 | |
| 20260507230403 | 22 | 248 | 12.9 | 20.9 | 0.00 | 0.00 | 0.00 | 52 | |
| 20260507230000 | 23 | 264 | 11.3 | 24.1 | 0.00 | 0.00 | 0.00 | 53 | |
| 20260507225758 | 22 | 285 | 14.5 | 22.5 | 0.00 | 0.00 | 0.00 | 52 | |
| 20260507225556 | 22 | 261 | 17.7 | 22.5 | 0.00 | 0.00 | 0.00 | 53 | |
| 20260507225354 | 22 | 282 | 19.3 | 22.5 | 0.00 | 0.00 | 0.00 | 53 | |
| 20260507225152 | 23 | 277 | 14.5 | 22.5 | 0.00 | 0.00 | 0.00 | 51 | |
| 20260507224950 | 23 | 278 | 11.3 | 22.5 | 0.00 | 0.00 | 0.00 | 51 | |
| 20260507224748 | 23 | 277 | 11.3 | 20.9 | 0.00 | 0.00 | 0.00 | 51 | |
| 20260507224142 | 23 | 248 | 16.1 | 24.1 | 0.00 | 0.00 | 0.00 | 52 | |
| 20260507223536 | 23 | 262 | 14.5 | 22.5 | 0.00 | 0.00 | 0.00 | 50 | |
| 20260507223334 | 23 | 268 | 12.9 | 22.5 | 0.00 | 0.00 | 0.00 | 50 | |
| 20260507222930 | 23 | 258 | 16.1 | 20.9 | 0.00 | 0.00 | 0.00 | 51 | |
| 20260507222728 | 23 | 279 | 4.8 | 17.7 | 0.00 | 0.00 | 0.00 | 51 | |
| 20260507222527 | 23 | 275 | 12.9 | 17.7 | 0.00 | 0.00 | 0.00 | 51 | |
| 20260507222123 | 23 | 264 | 11.3 | 25.7 | 0.00 | 0.00 | 0.00 | 50 | |
| 20260507221921 | 23 | 275 | 8.0 | 25.7 | 0.00 | 0.00 | 0.00 | 51 | |
| 20260507221719 | 23 | 261 | 14.5 | 24.1 | 0.00 | 0.00 | 0.00 | 52 | |
| 20260507221516 | 23 | 295 | 20.9 | 24.1 | 0.00 | 0.00 | 0.00 | 51 | |
| 20260507221315 | 23 | 282 | 16.1 | 25.7 | 0.00 | 0.00 | 0.00 | 51 | |
| 20260507220709 | 23 | 271 | 14.5 | 24.1 | 0.00 | 0.00 | 0.00 | 52 | |
| 20260507220505 | 23 | 260 | 19.3 | 24.1 | 0.00 | 0.00 | 0.00 | 51 | |
| 20260507220304 | 23 | 257 | 14.5 | 24.1 | 0.00 | 0.00 | 0.00 | 51 | |
| 20260507215901 | 23 | 240 | 17.7 | 24.1 | 0.00 | 0.00 | 0.00 | 51 | |
| 20260507215659 | 23 | 275 | 12.9 | 27.4 | 0.00 | 0.00 | 0.00 | 51 | |
| 20260507215457 | 23 | 240 | 6.4 | 27.4 | 0.00 | 0.00 | 0.00 | 52 | |
| 20260507215258 | 23 | 257 | 12.9 | 24.1 | 0.00 | 0.00 | 0.00 | 51 | |
| 20260507215255 | 23 | 257 | 12.9 | 24.1 | 0.00 | 0.00 | 0.00 | 51 | |
| 20260507215053 | 23 | 268 | 19.3 | 24.1 | 0.00 | 0.00 | 0.00 | 51 | |
| 20260507214851 | 23 | 262 | 12.9 | 24.1 | 0.00 | 0.00 | 0.00 | 51 | |
| 20260507214454 | 23 | 260 | 12.9 | 27.4 | 0.00 | 0.00 | 0.00 | 51 | |
| 20260507214244 | 23 | 261 | 9.7 | 24.1 | 0.00 | 0.00 | 0.00 | 52 | |
| 20260507214043 | 23 | 270 | 22.5 | 24.1 | 0.00 | 0.00 | 0.00 | 52 | |
| 20260507213840 | 23 | 257 | 16.1 | 24.1 | 0.00 | 0.00 | 0.00 | 52 | |
| 20260507213237 | 23 | 243 | 14.5 | 30.6 | 0.00 | 0.00 | 0.00 | 53 | |
| 20260507212831 | 23 | 265 | 14.5 | 30.6 | 0.00 | 0.00 | 0.00 | 52 | |
| 20260507212630 | 23 | 261 | 16.1 | 29.0 | 0.00 | 0.00 | 0.00 | 52 | |
| 20260507211821 | 23 | 254 | 22.5 | 25.7 | 0.00 | 0.00 | 0.00 | 51 | |
| 20260507211619 | 23 | 271 | 16.1 | 24.1 | 0.00 | 0.00 | 0.00 | 52 | |
| 20260507211416 | 23 | 254 | 9.7 | 24.1 | 0.00 | 0.00 | 0.00 | 52 | |
| 20260507211215 | 23 | 264 | 12.9 | 29.0 | 0.00 | 0.00 | 0.00 | 51 | |
| 20260507211015 | 23 | 302 | 8.0 | 29.0 | 0.00 | 0.00 | 0.00 | 53 | |
| 20260507210407 | 23 | 258 | 14.5 | 24.1 | 0.00 | 0.00 | 0.00 | 52 | |
| 20260507210004 | 23 | 265 | 19.3 | 22.5 | 0.00 | 0.00 | 0.00 | 50 | |
| 20260507205600 | 24 | 234 | 19.3 | 25.7 | 0.00 | 0.00 | 0.00 | 50 | |
| 20260507205359 | 24 | 246 | 12.9 | 25.7 | 0.00 | 0.00 | 0.00 | 51 | |
| 20260507205156 | 23 | 237 | 4.8 | 24.1 | 0.00 | 0.00 | 0.00 | 52 | |
| 20260507204954 | 23 | 277 | 20.9 | 24.1 | 0.00 | 0.00 | 0.00 | 51 | |
| 20260507204752 | 23 | 247 | 17.7 | 25.7 | 0.00 | 0.00 | 0.00 | 52 | |
| 20260507204550 | 23 | 282 | 14.5 | 25.7 | 0.00 | 0.00 | 0.00 | 51 | |
| 20260507203944 | 24 | 278 | 11.3 | 22.5 | 0.00 | 0.00 | 0.00 | 50 | |
| 20260507202532 | 23 | 268 | 22.5 | 22.5 | 0.00 | 0.00 | 0.00 | 51 | |
| 20260507202127 | 23 | 267 | 19.3 | 27.4 | 0.00 | 0.00 | 0.00 | 51 | |
| 20260507201521 | 24 | 246 | 16.1 | 22.5 | 0.00 | 0.00 | 0.00 | 51 | |
| 20260507201319 | 24 | 281 | 6.4 | 24.1 | 0.00 | 0.00 | 0.00 | 52 | |
| 20260507201115 | 23 | 289 | 14.5 | 24.1 | 0.00 | 0.00 | 0.00 | 52 | |
| 20260507200915 | 24 | 274 | 14.5 | 24.1 | 0.00 | 0.00 | 0.00 | 52 | |
| 20260507200711 | 23 | 260 | 11.3 | 27.4 | 0.00 | 0.00 | 0.00 | 51 | |
| 20260507200511 | 24 | 264 | 16.1 | 27.4 | 0.00 | 0.00 | 0.00 | 51 | |
| 20260507200309 | 23 | 253 | 14.5 | 25.7 | 0.00 | 0.00 | 0.00 | 51 | |
| 20260507200107 | 24 | 272 | 16.1 | 25.7 | 0.00 | 0.00 | 0.00 | 52 | |
| 20260507195903 | 24 | 257 | 17.7 | 25.7 | 0.00 | 0.00 | 0.00 | 51 | |
| 20260507195703 | 24 | 254 | 11.3 | 25.7 | 0.00 | 0.00 | 0.00 | 51 | |
| 20260507195501 | 23 | 250 | 12.9 | 25.7 | 0.00 | 0.00 | 0.00 | 51 | |
| 20260507195257 | 24 | 229 | 16.1 | 25.7 | 0.00 | 0.00 | 0.00 | 52 | |
| 20260507194856 | 24 | 286 | 20.9 | 25.7 | 0.00 | 0.00 | 0.00 | 51 | |
| 20260507194654 | 24 | 261 | 12.9 | 22.5 | 0.00 | 0.00 | 0.00 | 51 | |
| 20260507194451 | 24 | 258 | 17.7 | 22.5 | 0.00 | 0.00 | 0.00 | 49 | |
| 20260507194248 | 24 | 240 | 12.9 | 22.5 | 0.00 | 0.00 | 0.00 | 50 | |
| 20260507194047 | 24 | 270 | 14.5 | 22.5 | 0.00 | 0.00 | 0.00 | 51 | |
| 20260507193846 | 24 | 244 | 16.1 | 22.5 | 0.00 | 0.00 | 0.00 | 50 | |
| 20260507193441 | 24 | 298 | 11.3 | 19.3 | 0.00 | 0.00 | 0.00 | 49 | |
| 20260507193240 | 25 | 262 | 8.0 | 22.5 | 0.00 | 0.00 | 0.00 | 50 | |
| 20260507192834 | 24 | 275 | 12.9 | 22.5 | 0.00 | 0.00 | 0.00 | 51 | |
| 20260507192633 | 24 | 257 | 19.3 | 20.9 | 0.00 | 0.00 | 0.00 | 48 | |
| 20260507192436 | 25 | 309 | 6.4 | 20.9 | 0.00 | 0.00 | 0.00 | 49 | |
| 20260507192230 | 24 | 261 | 9.7 | 20.9 | 0.00 | 0.00 | 0.00 | 49 | |
| 20260507192028 | 24 | 284 | 11.3 | 20.9 | 0.00 | 0.00 | 0.00 | 49 | |
| 20260507191826 | 24 | 237 | 6.4 | 20.9 | 0.00 | 0.00 | 0.00 | 50 | |
| 20260507191622 | 23 | 260 | 11.3 | 24.1 | 0.00 | 0.00 | 0.00 | 50 | |
| 20260507191420 | 23 | 274 | 11.3 | 24.1 | 0.00 | 0.00 | 0.00 | 50 | |
| 20260507191220 | 23 | 268 | 19.3 | 17.7 | 0.00 | 0.00 | 0.00 | 50 | |
| 20260507191018 | 24 | 267 | 17.7 | 17.7 | 0.00 | 0.00 | 0.00 | 49 | |
| 20260507190209 | 24 | 261 | 12.9 | 20.9 | 0.00 | 0.00 | 0.00 | 48 | |
| 20260507190008 | 24 | 260 | 6.4 | 20.9 | 0.00 | 0.00 | 0.00 | 48 | |
| 20260507185604 | 23 | 277 | 12.9 | 17.7 | 0.00 | 0.00 | 0.00 | 48 | |
| 20260507185402 | 23 | 262 | 12.9 | 17.7 | 0.00 | 0.00 | 0.00 | 50 | |
| 20260507185201 | 23 | 268 | 16.1 | 20.9 | 0.00 | 0.00 | 0.00 | 50 | |
| 20260507184958 | 23 | 262 | 14.5 | 20.9 | 0.00 | 0.00 | 0.00 | 51 | |
| 20260507184756 | 23 | 268 | 17.7 | 17.7 | 0.00 | 0.00 | 0.00 | 49 | |
| 20260507184555 | 23 | 247 | 12.9 | 17.7 | 0.00 | 0.00 | 0.00 | 50 | |
| 20260507184151 | 23 | 271 | 9.7 | 19.3 | 0.00 | 0.00 | 0.00 | 50 | |
| 20260507183949 | 23 | 282 | 6.4 | 19.3 | 0.00 | 0.00 | 0.00 | 50 | |
| 20260507183746 | 23 | 236 | 11.3 | 17.7 | 0.00 | 0.00 | 0.00 | 51 | |
| 20260507183344 | 23 | 282 | 12.9 | 17.7 | 0.00 | 0.00 | 0.00 | 51 | |
| 20260507183141 | 23 | 264 | 16.1 | 19.3 | 0.00 | 0.00 | 0.00 | 51 | |
| 20260507182938 | 23 | 267 | 14.5 | 19.3 | 0.00 | 0.00 | 0.00 | 51 | |
| 20260507182737 | 23 | 295 | 11.3 | 14.5 | 0.00 | 0.00 | 0.00 | 51 | |
| 20260507182534 | 23 | 278 | 11.3 | 14.5 | 0.00 | 0.00 | 0.00 | 49 | |
| 20260507182333 | 23 | 293 | 8.0 | 14.5 | 0.00 | 0.00 | 0.00 | 51 | |
| 20260507182131 | 23 | 265 | 11.3 | 14.5 | 0.00 | 0.00 | 0.00 | 50 | |
| 20260507181927 | 23 | 285 | 8.0 | 14.5 | 0.00 | 0.00 | 0.00 | 50 | |
| 20260507181727 | 23 | 257 | 8.0 | 17.7 | 0.00 | 0.00 | 0.00 | 52 | |
| 20260507181525 | 23 | 244 | 12.9 | 17.7 | 0.00 | 0.00 | 0.00 | 51 | |
| 20260507181323 | 23 | 277 | 8.0 | 17.7 | 0.00 | 0.00 | 0.00 | 54 | |
| 20260507181120 | 22 | 288 | 9.7 | 17.7 | 0.00 | 0.00 | 0.00 | 53 | |
| 20260507180919 | 22 | 288 | 1.6 | 17.7 | 0.00 | 0.00 | 0.00 | 54 | |
| 20260507180717 | 22 | 288 | 14.5 | 17.7 | 0.00 | 0.00 | 0.00 | 53 | |
| 20260507180312 | 22 | 267 | 6.4 | 16.1 | 0.00 | 0.00 | 0.00 | 54 | |
| 20260507180110 | 22 | 295 | 6.4 | 16.1 | 0.00 | 0.00 | 0.00 | 52 | |
| 20260507175916 | 22 | 281 | 16.1 | 16.1 | 0.00 | 0.00 | 0.00 | 54 | |
| 20260507175505 | 22 | 285 | 9.7 | 16.1 | 0.00 | 0.00 | 0.00 | 55 | |
| 20260507175102 | 22 | 272 | 11.3 | 17.7 | 0.00 | 0.00 | 0.00 | 55 | |
| 20260507174900 | 22 | 288 | 8.0 | 17.7 | 0.00 | 0.00 | 0.00 | 55 | |
| 20260507174052 | 21 | 313 | 8.0 | 17.7 | 0.00 | 0.00 | 0.00 | 56 | |
| 20260507173850 | 22 | 274 | 12.9 | 17.7 | 0.00 | 0.00 | 0.00 | 56 | |
| 20260507173648 | 22 | 267 | 16.1 | 12.9 | 0.00 | 0.00 | 0.00 | 56 | |
| 20260507173446 | 22 | 260 | 8.0 | 12.9 | 0.00 | 0.00 | 0.00 | 57 | |
| 20260507173042 | 21 | 309 | 4.8 | 14.5 | 0.00 | 0.00 | 0.00 | 57 | |
| 20260507172840 | 21 | 281 | 11.3 | 14.5 | 0.00 | 0.00 | 0.00 | 56 | |
| 20260507172638 | 21 | 286 | 9.7 | 14.5 | 0.00 | 0.00 | 0.00 | 58 | |
| 20260507172436 | 21 | 291 | 11.3 | 14.5 | 0.00 | 0.00 | 0.00 | 57 | |
| 20260507172234 | 21 | 275 | 11.3 | 14.5 | 0.00 | 0.00 | 0.00 | 56 | |
| 20260507171830 | 21 | 272 | 12.9 | 14.5 | 0.00 | 0.00 | 0.00 | 58 | |
| 20260507171629 | 21 | 341 | 3.2 | 14.5 | 0.00 | 0.00 | 0.00 | 58 | |
| 20260507171427 | 21 | 271 | 12.9 | 14.5 | 0.00 | 0.00 | 0.00 | 58 | |
| 20260507171223 | 20 | 296 | 11.3 | 17.7 | 0.00 | 0.00 | 0.00 | 58 | |
| 20260507170820 | 20 | 274 | 11.3 | 12.9 | 0.00 | 0.00 | 0.00 | 60 | |
| 20260507170214 | 20 | 302 | 6.4 | 12.9 | 0.00 | 0.00 | 0.00 | 58 | |
| 20260507165811 | 20 | 267 | 1.6 | 14.5 | 0.00 | 0.00 | 0.00 | 60 | |
| 20260507165609 | 20 | 296 | 6.4 | 14.5 | 0.00 | 0.00 | 0.00 | 60 | |
| 20260507165407 | 20 | 275 | 9.7 | 14.5 | 0.00 | 0.00 | 0.00 | 61 | |
| 20260507165205 | 20 | 284 | 9.7 | 16.1 | 0.00 | 0.00 | 0.00 | 60 | |
| 20260507165003 | 20 | 288 | 12.9 | 16.1 | 0.00 | 0.00 | 0.00 | 61 | |
| 20260507164559 | 20 | 307 | 6.4 | 14.5 | 0.00 | 0.00 | 0.00 | 61 | |
| 20260507164358 | 20 | 277 | 14.5 | 14.5 | 0.00 | 0.00 | 0.00 | 61 | |
| 20260507164156 | 20 | 270 | 11.3 | 14.5 | 0.00 | 0.00 | 0.00 | 62 | |
| 20260507163750 | 20 | 270 | 9.7 | 14.5 | 0.00 | 0.00 | 0.00 | 63 | |
| 20260507163548 | 19 | 271 | 9.7 | 14.5 | 0.00 | 0.00 | 0.00 | 63 | |
| 20260507163348 | 19 | 288 | 14.5 | 14.5 | 0.00 | 0.00 | 0.00 | 63 | |
| 20260507163146 | 18 | 299 | 9.7 | 14.5 | 0.00 | 0.00 | 0.00 | 64 | |
| 20260507162944 | 18 | 288 | 11.3 | 14.5 | 0.00 | 0.00 | 0.00 | 63 | |
| 20260507162744 | 19 | 270 | 12.9 | 12.9 | 0.00 | 0.00 | 0.00 | 64 | |
| 20260507162338 | 19 | 274 | 11.3 | 12.9 | 0.00 | 0.00 | 0.00 | 64 | |
| 20260507162135 | 18 | 291 | 9.7 | 14.5 | 0.00 | 0.00 | 0.00 | 65 | |
| 20260507161935 | 18 | 251 | 3.2 | 14.5 | 0.00 | 0.00 | 0.00 | 65 | |
| 20260507161733 | 18 | 300 | 8.0 | 11.3 | 0.00 | 0.00 | 0.00 | 65 | |
| 20260507161529 | 18 | 270 | 4.8 | 11.3 | 0.00 | 0.00 | 0.00 | 67 | |
| 20260507161329 | 18 | 285 | 6.4 | 11.3 | 0.00 | 0.00 | 0.00 | 66 | |
| 20260507160925 | 18 | 292 | 9.7 | 11.3 | 0.00 | 0.00 | 0.00 | 66 | |
| 20260507160723 | 18 | 299 | 4.8 | 11.3 | 0.00 | 0.00 | 0.00 | 67 | |
| 20260507160522 | 18 | 291 | 9.7 | 11.3 | 0.00 | 0.00 | 0.00 | 67 | |
| 20260507160118 | 18 | 285 | 8.0 | 11.3 | 0.00 | 0.00 | 0.00 | 67 | |
| 20260507155916 | 18 | 317 | 3.2 | 11.3 | 0.00 | 0.00 | 0.00 | 68 | |
| 20260507155512 | 17 | 277 | 6.4 | 9.7 | 0.00 | 0.00 | 0.00 | 68 | |
| 20260507155310 | 17 | 241 | 0.0 | 11.3 | 0.00 | 0.00 | 0.00 | 69 | |
| 20260507155106 | 17 | 274 | 6.4 | 11.3 | 0.00 | 0.00 | 0.00 | 68 | |
| 20260507154906 | 17 | 293 | 8.0 | 11.3 | 0.00 | 0.00 | 0.00 | 68 | |
| 20260507154704 | 18 | 281 | 9.7 | 9.7 | 0.00 | 0.00 | 0.00 | 69 | |
| 20260507154503 | 17 | 265 | 4.8 | 9.7 | 0.00 | 0.00 | 0.00 | 70 | |
| 20260507154301 | 17 | 292 | 3.2 | 9.7 | 0.00 | 0.00 | 0.00 | 70 | |
| 20260507154059 | 17 | 305 | 6.4 | 9.7 | 0.00 | 0.00 | 0.00 | 70 | |
| 20260507153855 | 17 | 285 | 3.2 | 9.7 | 0.00 | 0.00 | 0.00 | 70 | |
| 20260507153453 | 17 | 298 | 4.8 | 8.0 | 0.00 | 0.00 | 0.00 | 71 | |
| 20260507153251 | 17 | 289 | 3.2 | 8.0 | 0.00 | 0.00 | 0.00 | 71 | |
| 20260507153049 | 17 | 286 | 4.8 | 8.0 | 0.00 | 0.00 | 0.00 | 72 | |
| 20260507152847 | 17 | 292 | 4.8 | 8.0 | 0.00 | 0.00 | 0.00 | 73 | |
| 20260507152646 | 17 | 274 | 8.0 | 8.0 | 0.00 | 0.00 | 0.00 | 73 | |
| 20260507152443 | 17 | 282 | 6.4 | 8.0 | 0.00 | 0.00 | 0.00 | 73 | |
| 20260507152439 | 16 | 284 | 3.2 | 6.4 | 0.00 | 0.00 | 0.00 | 74 | |
| 20260507152242 | 17 | 288 | 4.8 | 6.4 | 0.00 | 0.00 | 0.00 | 72 | |
| 20260507152038 | 17 | 279 | 4.8 | 6.4 | 0.00 | 0.00 | 0.00 | 74 | |
| 20260507151837 | 16 | 284 | 3.2 | 6.4 | 0.00 | 0.00 | 0.00 | 74 | |
| 20260507151636 | 16 | 272 | 6.4 | 4.8 | 0.00 | 0.00 | 0.00 | 74 | |
| 20260507151434 | 16 | 265 | 0.0 | 4.8 | 0.00 | 0.00 | 0.00 | 74 | |
| 20260507151230 | 16 | 282 | 3.2 | 4.8 | 0.00 | 0.00 | 0.00 | 73 | |
| 20260507151030 | 16 | 277 | 1.6 | 4.8 | 0.00 | 0.00 | 0.00 | 74 | |
| 20260507150828 | 16 | 237 | 0.0 | 4.8 | 0.00 | 0.00 | 0.00 | 74 | |
| 20260507150626 | 16 | 277 | 3.2 | 0.0 | 0.00 | 0.00 | 0.00 | 73 | |
| 20260507150424 | 16 | 77 | 0.0 | 0.0 | 0.00 | 0.00 | 0.00 | 73 | |
| 20260507150223 | 16 | 77 | 0.0 | 0.0 | 0.00 | 0.00 | 0.00 | 73 | |
| 20260507150019 | 16 | 77 | 0.0 | 0.0 | 0.00 | 0.00 | 0.00 | 74 | |
| 20260507145819 | 16 | 77 | 0.0 | 1.6 | 0.00 | 0.00 | 0.00 | 75 | |
| 20260507145616 | 16 | 77 | 0.0 | 1.6 | 0.00 | 0.00 | 0.00 | 75 | |
| 20260507145415 | 16 | 77 | 0.0 | 1.6 | 0.00 | 0.00 | 0.00 | 75 | |
| 20260507145213 | 16 | 77 | 0.0 | 4.8 | 0.00 | 0.00 | 0.00 | 76 | |
| 20260507145011 | 16 | 77 | 0.0 | 4.8 | 0.00 | 0.00 | 0.00 | 76 | |
| 20260507144809 | 16 | 87 | 0.0 | 4.8 | 0.00 | 0.00 | 0.00 | 76 | |
| 20260507144607 | 16 | 92 | 1.6 | 4.8 | 0.00 | 0.00 | 0.00 | 76 | |
| 20260507144405 | 16 | 113 | 4.8 | 4.8 | 0.00 | 0.00 | 0.00 | 76 | |
| 20260507143800 | 15 | 66 | 1.6 | 6.4 | 0.00 | 0.00 | 0.00 | 79 | |
| 20260507143356 | 15 | 64 | 0.0 | 6.4 | 0.00 | 0.00 | 0.00 | 81 | |
| 20260507142952 | 14 | 115 | 6.4 | 6.4 | 0.00 | 0.00 | 0.00 | 81 | |
| 20260507142750 | 14 | 122 | 6.4 | 6.4 | 0.00 | 0.00 | 0.00 | 81 | |
| 20260507142548 | 14 | 126 | 4.8 | 6.4 | 0.00 | 0.00 | 0.00 | 82 | |
| 20260507142346 | 14 | 112 | 4.8 | 6.4 | 0.00 | 0.00 | 0.00 | 82 | |
| 20260507142144 | 13 | 101 | 4.8 | 4.8 | 0.00 | 0.00 | 0.00 | 82 | |
| 20260507141942 | 13 | 127 | 3.2 | 4.8 | 0.00 | 0.00 | 0.00 | 83 | |
| 20260507141538 | 13 | 112 | 3.2 | 4.8 | 0.00 | 0.00 | 0.00 | 83 | |
| 20260507141337 | 13 | 97 | 3.2 | 4.8 | 0.00 | 0.00 | 0.00 | 84 | |
| 20260507141134 | 13 | 119 | 3.2 | 4.8 | 0.00 | 0.00 | 0.00 | 84 | |
| 20260507140933 | 13 | 61 | 0.0 | 4.8 | 0.00 | 0.00 | 0.00 | 85 | |
| 20260507140731 | 13 | 97 | 3.2 | 4.8 | 0.00 | 0.00 | 0.00 | 85 | |
| 20260507140529 | 13 | 116 | 4.8 | 4.8 | 0.00 | 0.00 | 0.00 | 85 | |
| 20260507140327 | 13 | 112 | 3.2 | 4.8 | 0.00 | 0.00 | 0.00 | 86 | |
| 20260507140125 | 13 | 108 | 3.2 | 3.2 | 0.00 | 0.00 | 0.00 | 86 | |
| 20260507135923 | 13 | 105 | 3.2 | 3.2 | 0.00 | 0.00 | 0.00 | 85 | |
| 20260507135721 | 13 | 116 | 3.2 | 3.2 | 0.00 | 0.00 | 0.00 | 86 | |
| 20260507135317 | 13 | 126 | 1.6 | 4.8 | 0.00 | 0.00 | 0.00 | 86 | |
| 20260507135116 | 12 | 126 | 1.6 | 4.8 | 0.00 | 0.00 | 0.00 | 86 | |
| 20260507134913 | 12 | 123 | 1.6 | 4.8 | 0.00 | 0.00 | 0.00 | 87 | |
| 20260507134711 | 12 | 125 | 1.6 | 6.4 | 0.00 | 0.00 | 0.00 | 87 | |
| 20260507134510 | 12 | 115 | 1.6 | 6.4 | 0.00 | 0.00 | 0.00 | 88 | |
| 20260507134308 | 12 | 123 | 1.6 | 4.8 | 0.00 | 0.00 | 0.00 | 88 | |
| 20260507134106 | 12 | 111 | 4.8 | 4.8 | 0.00 | 0.00 | 0.00 | 89 | |
| 20260507133904 | 12 | 116 | 1.6 | 4.8 | 0.00 | 0.00 | 0.00 | 89 | |
| 20260507133702 | 12 | 106 | 1.6 | 0.0 | 0.00 | 0.00 | 0.00 | 89 | |
| 20260507133500 | 12 | 81 | 0.0 | 0.0 | 0.00 | 0.00 | 0.00 | 89 | |
| 20260507133258 | 12 | 81 | 0.0 | 0.0 | 0.00 | 0.00 | 0.00 | 89 | |
| 20260507133057 | 12 | 81 | 0.0 | 0.0 | 0.00 | 0.00 | 0.00 | 90 | |
| 20260507132855 | 12 | 81 | 0.0 | 0.0 | 0.00 | 0.00 | 0.00 | 90 | |
| 20260507132653 | 12 | 81 | 0.0 | 0.0 | 0.00 | 0.00 | 0.00 | 90 | |
| 20260507132451 | 12 | 81 | 0.0 | 0.0 | 0.00 | 0.00 | 0.00 | 90 | |
| 20260507132249 | 12 | 81 | 0.0 | 3.2 | 0.00 | 0.00 | 0.00 | 90 | |
| 20260507131643 | 11 | 81 | 0.0 | 6.4 | 0.00 | 0.00 | 0.00 | 90 | |
| 20260507131442 | 11 | 108 | 1.6 | 6.4 | 0.00 | 0.00 | 0.00 | 90 | |
| 20260507131240 | 11 | 116 | 3.2 | 3.2 | 0.00 | 0.00 | 0.00 | 90 | |
| 20260507131038 | 11 | 111 | 1.6 | 3.2 | 0.00 | 0.00 | 0.00 | 90 | |
| 20260507130836 | 11 | 133 | 1.6 | 3.2 | 0.00 | 0.00 | 0.00 | 90 | |
| 20260507130633 | 11 | 105 | 0.0 | 3.2 | 0.00 | 0.00 | 0.00 | 90 | |
| 20260507130432 | 11 | 126 | 1.6 | 3.2 | 0.00 | 0.00 | 0.00 | 91 | |
| 20260507130230 | 11 | 119 | 1.6 | 3.2 | 0.00 | 0.00 | 0.00 | 91 | |
| 20260507130028 | 11 | 116 | 1.6 | 3.2 | 0.00 | 0.00 | 0.00 | 91 | |
| 20260507125826 | 11 | 111 | 1.6 | 3.2 | 0.00 | 0.00 | 0.00 | 91 | |
| 20260507125624 | 11 | 97 | 1.6 | 3.2 | 0.00 | 0.00 | 0.00 | 91 | |
| 20260507125422 | 11 | 109 | 3.2 | 3.2 | 0.00 | 0.00 | 0.00 | 90 | |
| 20260507125220 | 11 | 113 | 3.2 | 3.2 | 0.00 | 0.00 | 0.00 | 89 | |
| 20260507125018 | 11 | 105 | 0.0 | 3.2 | 0.00 | 0.00 | 0.00 | 89 | |
| 20260507124816 | 11 | 116 | 1.6 | 0.0 | 0.00 | 0.00 | 0.00 | 88 | |
| 20260507124211 | 12 | 87 | 0.0 | 0.0 | 0.00 | 0.00 | 0.00 | 89 | |
| 20260507124009 | 12 | 87 | 0.0 | 0.0 | 0.00 | 0.00 | 0.00 | 89 | |
| 20260507123807 | 12 | 87 | 0.0 | 0.0 | 0.00 | 0.00 | 0.00 | 89 | |
| 20260507123605 | 12 | 87 | 0.0 | 0.0 | 0.00 | 0.00 | 0.00 | 89 | |
| 20260507123403 | 12 | 87 | 0.0 | 0.0 | 0.00 | 0.00 | 0.00 | 89 | |
| 20260507123159 | 12 | 87 | 0.0 | 0.0 | 0.00 | 0.00 | 0.00 | 89 | |
| 20260507122959 | 12 | 87 | 0.0 | 0.0 | 0.00 | 0.00 | 0.00 | 89 | |
| 20260507122556 | 12 | 87 | 0.0 | 1.6 | 0.00 | 0.00 | 0.00 | 89 | |
| 20260507122353 | 12 | 87 | 0.0 | 1.6 | 0.00 | 0.00 | 0.00 | 89 | |
| 20260507122152 | 12 | 87 | 0.0 | 3.2 | 0.00 | 0.00 | 0.00 | 89 | |
| 20260507121748 | 12 | 87 | 0.0 | 0.0 | 0.00 | 0.00 | 0.00 | 89 | |
| 20260507121546 | 12 | 71 | 0.0 | 0.0 | 0.00 | 0.00 | 0.00 | 89 | |
| 20260507121344 | 12 | 71 | 0.0 | 0.0 | 0.00 | 0.00 | 0.00 | 89 | |
| 20260507121142 | 12 | 71 | 0.0 | 0.0 | 0.00 | 0.00 | 0.00 | 89 | |
| 20260507120738 | 12 | 71 | 0.0 | 4.8 | 0.00 | 0.00 | 0.00 | 90 | |
| 20260507120536 | 12 | 71 | 0.0 | 4.8 | 0.00 | 0.00 | 0.00 | 90 | |
| 20260507120334 | 12 | 71 | 0.0 | 4.8 | 0.00 | 0.00 | 0.00 | 90 | |
| 20260507120133 | 12 | 102 | 3.2 | 1.6 | 0.00 | 0.00 | 0.00 | 90 | |
| 20260507115931 | 12 | 92 | 0.0 | 1.6 | 0.00 | 0.00 | 0.00 | 90 | |
| 20260507115728 | 12 | 92 | 0.0 | 1.6 | 0.00 | 0.00 | 0.00 | 90 | |
| 20260507115527 | 12 | 70 | 0.0 | 1.6 | 0.00 | 0.00 | 0.00 | 90 | |
| 20260507115325 | 12 | 91 | 0.0 | 1.6 | 0.00 | 0.00 | 0.00 | 90 | |
| 20260507115123 | 12 | 91 | 0.0 | 0.0 | 0.00 | 0.00 | 0.00 | 90 | |
| 20260507114921 | 12 | 71 | 0.0 | 0.0 | 0.00 | 0.00 | 0.00 | 90 | |
| 20260507114719 | 12 | 71 | 0.0 | 0.0 | 0.00 | 0.00 | 0.00 | 90 | |
| 20260507114518 | 12 | 71 | 0.0 | 0.0 | 0.00 | 0.00 | 0.00 | 89 | |
| 20260507114315 | 12 | 71 | 0.0 | 0.0 | 0.00 | 0.00 | 0.00 | 89 | |
| 20260507114114 | 12 | 71 | 0.0 | 0.0 | 0.00 | 0.00 | 0.00 | 89 | |
| 20260507113911 | 12 | 71 | 0.0 | 0.0 | 0.00 | 0.00 | 0.00 | 89 | |
| 20260507113709 | 12 | 71 | 0.0 | 0.0 | 0.00 | 0.00 | 0.00 | 89 | |
| 20260507113507 | 12 | 71 | 0.0 | 0.0 | 0.00 | 0.00 | 0.00 | 89 | |
| 20260507113306 | 12 | 71 | 0.0 | 0.0 | 0.00 | 0.00 | 0.00 | 89 | |
| 20260507112902 | 12 | 71 | 0.0 | 0.0 | 0.00 | 0.00 | 0.00 | 89 | |
| 20260507112700 | 12 | 71 | 0.0 | 0.0 | 0.00 | 0.00 | 0.00 | 89 | |
| 20260507112257 | 12 | 60 | 0.0 | 0.0 | 0.00 | 0.00 | 0.00 | 89 | |
| 20260507112055 | 12 | 77 | 0.0 | 0.0 | 0.00 | 0.00 | 0.00 | 89 | |
| 20260507111651 | 12 | 77 | 0.0 | 0.0 | 0.00 | 0.00 | 0.00 | 89 | |
| 20260507111449 | 12 | 77 | 0.0 | 0.0 | 0.00 | 0.00 | 0.00 | 89 | |
| 20260507111247 | 12 | 77 | 0.0 | 0.0 | 0.00 | 0.00 | 0.00 | 89 | |
| 20260507111045 | 12 | 91 | 0.0 | 0.0 | 0.00 | 0.00 | 0.00 | 89 | |
| 20260507110843 | 12 | 91 | 0.0 | 0.0 | 0.00 | 0.00 | 0.00 | 89 | |
| 20260507110439 | 12 | 91 | 0.0 | 0.0 | 0.00 | 0.00 | 0.00 | 88 | |
| 20260507110237 | 12 | 91 | 0.0 | 0.0 | 0.00 | 0.00 | 0.00 | 88 | |
| 20260507110034 | 12 | 91 | 0.0 | 0.0 | 0.00 | 0.00 | 0.00 | 88 | |
| 20260507105430 | 12 | 91 | 0.0 | 0.0 | 0.00 | 0.00 | 0.00 | 89 | |
| 20260507105228 | 12 | 91 | 0.0 | 0.0 | 0.00 | 0.00 | 0.00 | 88 | |
| 20260507105026 | 12 | 91 | 0.0 | 0.0 | 0.00 | 0.00 | 0.00 | 88 | |
| 20260507104824 | 12 | 91 | 0.0 | 0.0 | 0.00 | 0.00 | 0.00 | 88 | |
| 20260507104420 | 12 | 91 | 0.0 | 0.0 | 0.00 | 0.00 | 0.00 | 87 | |
| 20260507104017 | 12 | 91 | 0.0 | 0.0 | 0.00 | 0.00 | 0.00 | 87 | |
| 20260507103815 | 12 | 91 | 0.0 | 0.0 | 0.00 | 0.00 | 0.00 | 87 | |
| 20260507103613 | 12 | 91 | 0.0 | 0.0 | 0.00 | 0.00 | 0.00 | 87 | |
| 20260507103411 | 12 | 91 | 0.0 | 0.0 | 0.00 | 0.00 | 0.00 | 86 | |
| 20260507103007 | 12 | 91 | 0.0 | 0.0 | 0.00 | 0.00 | 0.00 | 87 | |
| 20260507102805 | 12 | 91 | 0.0 | 0.0 | 0.00 | 0.00 | 0.00 | 87 | |
| 20260507102603 | 12 | 91 | 0.0 | 0.0 | 0.00 | 0.00 | 0.00 | 87 | |
| 20260507102158 | 12 | 91 | 0.0 | 0.0 | 0.00 | 0.00 | 0.00 | 87 | |
| 20260507101957 | 12 | 91 | 0.0 | 0.0 | 0.00 | 0.00 | 0.00 | 87 | |
| 20260507101756 | 12 | 91 | 0.0 | 0.0 | 0.00 | 0.00 | 0.00 | 87 | |
| 20260507101552 | 12 | 91 | 0.0 | 0.0 | 0.00 | 0.00 | 0.00 | 87 | |
| 20260507101350 | 12 | 91 | 0.0 | 0.0 | 0.00 | 0.00 | 0.00 | 87 | |
| 20260507101149 | 12 | 91 | 0.0 | 0.0 | 0.00 | 0.00 | 0.00 | 87 | |
| 20260507100946 | 12 | 91 | 0.0 | 0.0 | 0.00 | 0.00 | 0.00 | 87 | |
| 20260507100744 | 12 | 91 | 0.0 | 0.0 | 0.00 | 0.00 | 0.00 | 87 | |
| 20260507100543 | 12 | 91 | 0.0 | 0.0 | 0.00 | 0.00 | 0.00 | 87 | |
| 20260507100140 | 12 | 91 | 0.0 | 0.0 | 0.00 | 0.00 | 0.00 | 87 | |
| 20260507095938 | 12 | 91 | 0.0 | 0.0 | 0.00 | 0.00 | 0.00 | 87 | |
| 20260507095737 | 12 | 91 | 0.0 | 0.0 | 0.00 | 0.00 | 0.00 | 87 | |
| 20260507095535 | 12 | 91 | 0.0 | 0.0 | 0.00 | 0.00 | 0.00 | 86 | |
| 20260507095333 | 12 | 91 | 0.0 | 0.0 | 0.00 | 0.00 | 0.00 | 86 | |
| 20260507095131 | 12 | 91 | 0.0 | 0.0 | 0.00 | 0.00 | 0.00 | 86 | |
| 20260507094928 | 12 | 91 | 0.0 | 0.0 | 0.00 | 0.00 | 0.00 | 86 | |
| 20260507094725 | 12 | 91 | 0.0 | 0.0 | 0.00 | 0.00 | 0.00 | 85 | |
| 20260507094525 | 12 | 91 | 0.0 | 0.0 | 0.00 | 0.00 | 0.00 | 85 | |
| 20260507094321 | 13 | 91 | 0.0 | 0.0 | 0.00 | 0.00 | 0.00 | 85 | |
| 20260507094121 | 13 | 91 | 0.0 | 3.2 | 0.00 | 0.00 | 0.00 | 85 | |
| 20260507093918 | 13 | 91 | 0.0 | 3.2 | 0.00 | 0.00 | 0.00 | 86 | |
| 20260507093717 | 13 | 91 | 0.0 | 4.8 | 0.00 | 0.00 | 0.00 | 86 | |
| 20260507093516 | 13 | 91 | 0.0 | 4.8 | 0.00 | 0.00 | 0.00 | 85 | |
| 20260507093314 | 13 | 112 | 3.2 | 3.2 | 0.00 | 0.00 | 0.00 | 85 | |
| 20260507092910 | 13 | 116 | 3.2 | 3.2 | 0.00 | 0.00 | 0.00 | 86 | |
| 20260507092506 | 13 | 74 | 0.0 | 0.0 | 0.00 | 0.00 | 0.00 | 86 | |
| 20260507092307 | 13 | 74 | 0.0 | 3.2 | 0.00 | 0.00 | 0.00 | 86 | |
| 20260507092102 | 13 | 74 | 0.0 | 3.2 | 0.00 | 0.00 | 0.00 | 86 | |
| 20260507091658 | 13 | 74 | 0.0 | 4.8 | 0.00 | 0.00 | 0.00 | 85 | |
| 20260507091457 | 13 | 118 | 3.2 | 4.8 | 0.00 | 0.00 | 0.00 | 86 | |
| 20260507090851 | 12 | 99 | 1.6 | 4.8 | 0.00 | 0.00 | 0.00 | 87 | |
| 20260507090649 | 12 | 260 | 0.0 | 0.0 | 0.00 | 0.00 | 0.00 | 87 | |
| 20260507090447 | 12 | 260 | 0.0 | 0.0 | 0.00 | 0.00 | 0.00 | 87 | |
| 20260507090043 | 12 | 260 | 0.0 | 0.0 | 0.00 | 0.00 | 0.00 | 87 | |
| 20260507085841 | 12 | 260 | 0.0 | 0.0 | 0.00 | 0.00 | 0.00 | 87 | |
| 20260507085639 | 12 | 260 | 0.0 | 0.0 | 0.00 | 0.00 | 0.00 | 87 | |
| 20260507085437 | 12 | 260 | 0.0 | 0.0 | 0.00 | 0.00 | 0.00 | 87 | |
| 20260507085235 | 12 | 260 | 0.0 | 0.0 | 0.00 | 0.00 | 0.00 | 87 | |
| 20260507085034 | 12 | 260 | 0.0 | 0.0 | 0.00 | 0.00 | 0.00 | 87 | |
| 20260507084834 | 12 | 260 | 0.0 | 0.0 | 0.00 | 0.00 | 0.00 | 86 | |
| 20260507084630 | 12 | 260 | 0.0 | 0.0 | 0.00 | 0.00 | 0.00 | 87 | |
| 20260507084428 | 12 | 260 | 0.0 | 0.0 | 0.00 | 0.00 | 0.00 | 87 | |
| 20260507083620 | 12 | 260 | 0.0 | 0.0 | 0.00 | 0.00 | 0.00 | 87 | |
| 20260507083418 | 12 | 260 | 0.0 | 0.0 | 0.00 | 0.00 | 0.00 | 87 | |
| 20260507083216 | 12 | 260 | 0.0 | 0.0 | 0.00 | 0.00 | 0.00 | 87 | |
| 20260507083015 | 12 | 260 | 0.0 | 0.0 | 0.00 | 0.00 | 0.00 | 87 | |
| 20260507082409 | 12 | 260 | 0.0 | 0.0 | 0.00 | 0.00 | 0.00 | 87 | |
| 20260507082207 | 12 | 260 | 0.0 | 0.0 | 0.00 | 0.00 | 0.00 | 87 | |
| 20260507082003 | 12 | 260 | 0.0 | 0.0 | 0.00 | 0.00 | 0.00 | 87 | |
| 20260507081359 | 12 | 260 | 0.0 | 0.0 | 0.00 | 0.00 | 0.00 | 86 | |
| 20260507081156 | 12 | 260 | 0.0 | 0.0 | 0.00 | 0.00 | 0.00 | 87 | |
| 20260507081110 | 12 | 260 | 0.0 | 0.0 | 0.00 | 0.00 | 0.00 | 87 | |
| 20260507080955 | 12 | 260 | 0.0 | 0.0 | 0.00 | 0.00 | 0.00 | 87 | |
| 20260507080754 | 13 | 260 | 0.0 | 0.0 | 0.00 | 0.00 | 0.00 | 87 | |
| 20260507080552 | 12 | 260 | 0.0 | 0.0 | 0.00 | 0.00 | 0.00 | 87 | |
| 20260507080350 | 12 | 260 | 0.0 | 0.0 | 0.00 | 0.00 | 0.00 | 87 | |
| 20260507080148 | 12 | 260 | 0.0 | 0.0 | 0.00 | 0.00 | 0.00 | 87 | |
| 20260507075946 | 12 | 260 | 0.0 | 0.0 | 0.00 | 0.00 | 0.00 | 87 | |
| 20260507075742 | 12 | 260 | 0.0 | 0.0 | 0.00 | 0.00 | 0.00 | 87 | |
| 20260507075138 | 12 | 260 | 0.0 | 0.0 | 0.00 | 0.00 | 0.00 | 87 | |
| 20260507074937 | 12 | 260 | 0.0 | 0.0 | 0.00 | 0.00 | 0.00 | 87 | |
| 20260507074735 | 12 | 260 | 0.0 | 0.0 | 0.00 | 0.00 | 0.00 | 87 | |
| 20260507074533 | 12 | 260 | 0.0 | 0.0 | 0.00 | 0.00 | 0.00 | 87 | |
| 20260507074330 | 12 | 260 | 0.0 | 0.0 | 0.00 | 0.00 | 0.00 | 86 | |
| 20260507074129 | 12 | 260 | 0.0 | 0.0 | 0.00 | 0.00 | 0.00 | 86 | |
| 20260507073927 | 12 | 260 | 0.0 | 0.0 | 0.00 | 0.00 | 0.00 | 86 | |
| 20260507073725 | 12 | 260 | 0.0 | 0.0 | 0.00 | 0.00 | 0.00 | 86 | |
| 20260507073523 | 12 | 260 | 0.0 | 0.0 | 0.00 | 0.00 | 0.00 | 86 | |
| 20260507073321 | 12 | 260 | 0.0 | 0.0 | 0.00 | 0.00 | 0.00 | 86 | |
| 20260507072917 | 12 | 260 | 0.0 | 0.0 | 0.00 | 0.00 | 0.00 | 86 | |
| 20260507072715 | 12 | 260 | 0.0 | 0.0 | 0.00 | 0.00 | 0.00 | 86 | |
| 20260507072514 | 13 | 260 | 0.0 | 0.0 | 0.00 | 0.00 | 0.00 | 86 | |
| 20260507072312 | 13 | 260 | 0.0 | 0.0 | 0.00 | 0.00 | 0.00 | 86 | |
| 20260507072110 | 13 | 260 | 0.0 | 0.0 | 0.00 | 0.00 | 0.00 | 86 | |
| 20260507071908 | 13 | 260 | 0.0 | 0.0 | 0.00 | 0.00 | 0.00 | 85 | |
| 20260507071706 | 13 | 260 | 0.0 | 0.0 | 0.00 | 0.00 | 0.00 | 85 | |
| 20260507071504 | 13 | 260 | 0.0 | 0.0 | 0.00 | 0.00 | 0.00 | 85 | |
| 20260507071302 | 13 | 260 | 0.0 | 0.0 | 0.00 | 0.00 | 0.00 | 86 | |
| 20260507071101 | 13 | 260 | 0.0 | 0.0 | 0.00 | 0.00 | 0.00 | 86 | |
| 20260507070858 | 13 | 260 | 0.0 | 0.0 | 0.00 | 0.00 | 0.00 | 85 | |
| 20260507070657 | 13 | 260 | 0.0 | 0.0 | 0.00 | 0.00 | 0.00 | 86 | |
| 20260507070455 | 13 | 260 | 0.0 | 0.0 | 0.00 | 0.00 | 0.00 | 86 | |
| 20260507070253 | 13 | 260 | 0.0 | 0.0 | 0.00 | 0.00 | 0.00 | 86 | |
| 20260507070051 | 13 | 260 | 0.0 | 0.0 | 0.00 | 0.00 | 0.00 | 85 | |
| 20260507065647 | 13 | 260 | 0.0 | 0.0 | 0.00 | 0.00 | 0.00 | 85 | |
| 20260507065243 | 13 | 260 | 0.0 | 0.0 | 0.00 | 0.00 | 0.00 | 85 | |
| 20260507065041 | 13 | 260 | 0.0 | 0.0 | 0.00 | 0.00 | 0.00 | 86 | |
| 20260507064637 | 13 | 260 | 0.0 | 0.0 | 0.00 | 0.00 | 0.00 | 86 | |
| 20260507064436 | 13 | 260 | 0.0 | 0.0 | 0.00 | 0.00 | 0.00 | 86 | |
| 20260507064234 | 13 | 260 | 0.0 | 0.0 | 0.00 | 0.00 | 0.00 | 86 | |
| 20260507064032 | 13 | 260 | 0.0 | 0.0 | 0.00 | 0.00 | 0.00 | 86 | |
| 20260507063830 | 13 | 260 | 0.0 | 0.0 | 0.00 | 0.00 | 0.00 | 86 | |
| 20260507063628 | 13 | 260 | 0.0 | 0.0 | 0.00 | 0.00 | 0.00 | 86 | |
| 20260507063426 | 13 | 260 | 0.0 | 0.0 | 0.00 | 0.00 | 0.00 | 86 | |
| 20260507063022 | 13 | 260 | 0.0 | 0.0 | 0.00 | 0.00 | 0.00 | 86 | |
| 20260507062820 | 13 | 260 | 0.0 | 0.0 | 0.00 | 0.00 | 0.00 | 86 | |
| 20260507062619 | 13 | 260 | 0.0 | 0.0 | 0.00 | 0.00 | 0.00 | 86 | |
| 20260507062417 | 13 | 260 | 0.0 | 0.0 | 0.00 | 0.00 | 0.00 | 86 | |
| 20260507062215 | 13 | 260 | 0.0 | 0.0 | 0.00 | 0.00 | 0.00 | 85 | |
| 20260507062013 | 13 | 260 | 0.0 | 0.0 | 0.00 | 0.00 | 0.00 | 85 | |
| 20260507061811 | 13 | 260 | 0.0 | 0.0 | 0.00 | 0.00 | 0.00 | 85 | |
| 20260507061609 | 13 | 260 | 0.0 | 0.0 | 0.00 | 0.00 | 0.00 | 85 | |
| 20260507061407 | 13 | 260 | 0.0 | 0.0 | 0.00 | 0.00 | 0.00 | 85 | |
| 20260507061205 | 13 | 260 | 0.0 | 0.0 | 0.00 | 0.00 | 0.00 | 85 | |
| 20260507061003 | 13 | 260 | 0.0 | 0.0 | 0.00 | 0.00 | 0.00 | 85 | |
| 20260507060801 | 13 | 260 | 0.0 | 0.0 | 0.00 | 0.00 | 0.00 | 85 | |
| 20260507060559 | 13 | 260 | 0.0 | 0.0 | 0.00 | 0.00 | 0.00 | 85 | |
| 20260507060357 | 13 | 260 | 0.0 | 0.0 | 0.00 | 0.00 | 0.00 | 85 | |
| 20260507060155 | 13 | 260 | 0.0 | 0.0 | 0.00 | 0.00 | 0.00 | 85 | |
| 20260507055952 | 13 | 260 | 0.0 | 0.0 | 0.00 | 0.00 | 0.00 | 85 | |
| 20260507055752 | 13 | 260 | 0.0 | 0.0 | 0.00 | 0.00 | 0.00 | 85 | |
| 20260507055550 | 13 | 260 | 0.0 | 0.0 | 0.00 | 0.00 | 0.00 | 85 | |
| 20260507055348 | 13 | 260 | 0.0 | 0.0 | 0.00 | 0.00 | 0.00 | 85 | |
| 20260507055146 | 13 | 260 | 0.0 | 0.0 | 0.00 | 0.00 | 0.00 | 85 | |
| 20260507054942 | 13 | 260 | 0.0 | 0.0 | 0.00 | 0.00 | 0.00 | 85 | |
| 20260507054742 | 13 | 260 | 0.0 | 0.0 | 0.00 | 0.00 | 0.00 | 85 | |
| 20260507054540 | 13 | 260 | 0.0 | 0.0 | 0.00 | 0.00 | 0.00 | 85 | |
| 20260507054338 | 13 | 260 | 0.0 | 0.0 | 0.00 | 0.00 | 0.00 | 85 | |
| 20260507054135 | 13 | 260 | 0.0 | 0.0 | 0.00 | 0.00 | 0.00 | 85 | |
| 20260507053934 | 13 | 260 | 0.0 | 0.0 | 0.00 | 0.00 | 0.00 | 85 | |
| 20260507053733 | 13 | 260 | 0.0 | 0.0 | 0.00 | 0.00 | 0.00 | 85 | |
| 20260507053531 | 13 | 260 | 0.0 | 0.0 | 0.00 | 0.00 | 0.00 | 84 | |
| 20260507053329 | 13 | 260 | 0.0 | 0.0 | 0.00 | 0.00 | 0.00 | 84 | |
| 20260507053127 | 14 | 260 | 0.0 | 0.0 | 0.00 | 0.00 | 0.00 | 84 | |
| 20260507052925 | 13 | 260 | 0.0 | 0.0 | 0.00 | 0.00 | 0.00 | 84 | |
| 20260507052723 | 13 | 260 | 0.0 | 0.0 | 0.00 | 0.00 | 0.00 | 84 | |
| 20260507052522 | 13 | 260 | 0.0 | 0.0 | 0.00 | 0.00 | 0.00 | 83 | |
| 20260507052319 | 14 | 260 | 0.0 | 0.0 | 0.00 | 0.00 | 0.00 | 83 | |
| 20260507052118 | 14 | 260 | 0.0 | 0.0 | 0.00 | 0.00 | 0.00 | 83 | |
| 20260507051915 | 14 | 260 | 0.0 | 0.0 | 0.00 | 0.00 | 0.00 | 82 | |
| 20260507051714 | 14 | 260 | 0.0 | 0.0 | 0.00 | 0.00 | 0.00 | 83 | |
| 20260507051512 | 14 | 260 | 0.0 | 0.0 | 0.00 | 0.00 | 0.00 | 83 | |
| 20260507051108 | 14 | 260 | 0.0 | 0.0 | 0.00 | 0.00 | 0.00 | 83 | |
| 20260507050906 | 15 | 260 | 0.0 | 0.0 | 0.00 | 0.00 | 0.00 | 83 | |
| 20260507050704 | 15 | 260 | 0.0 | 0.0 | 0.00 | 0.00 | 0.00 | 83 | |
| 20260507050502 | 15 | 260 | 0.0 | 0.0 | 0.00 | 0.00 | 0.00 | 83 | |
| 20260507050300 | 15 | 260 | 0.0 | 0.0 | 0.00 | 0.00 | 0.00 | 83 | |
| 20260507050058 | 15 | 260 | 0.0 | 0.0 | 0.00 | 0.00 | 0.00 | 82 | |
| 20260507045855 | 15 | 260 | 0.0 | 0.0 | 0.00 | 0.00 | 0.00 | 82 | |
| 20260507045655 | 15 | 260 | 0.0 | 0.0 | 0.00 | 0.00 | 0.00 | 82 | |
| 20260507045452 | 15 | 260 | 0.0 | 0.0 | 0.00 | 0.00 | 0.00 | 82 | |
| 20260507045250 | 15 | 260 | 0.0 | 0.0 | 0.00 | 0.00 | 0.00 | 82 | |
| 20260507045048 | 15 | 260 | 0.0 | 0.0 | 0.00 | 0.00 | 0.00 | 81 | |
| 20260507044847 | 15 | 260 | 0.0 | 0.0 | 0.00 | 0.00 | 0.00 | 81 | |
| 20260507044443 | 15 | 260 | 0.0 | 0.0 | 0.00 | 0.00 | 0.00 | 81 | |
| 20260507044241 | 15 | 260 | 0.0 | 0.0 | 0.00 | 0.00 | 0.00 | 81 | |
| 20260507043635 | 15 | 260 | 0.0 | 0.0 | 0.00 | 0.00 | 0.00 | 80 | |
| 20260507043434 | 15 | 260 | 0.0 | 0.0 | 0.00 | 0.00 | 0.00 | 80 | |
| 20260507043030 | 15 | 260 | 0.0 | 0.0 | 0.00 | 0.00 | 0.00 | 80 | |
| 20260507042828 | 15 | 260 | 0.0 | 0.0 | 0.00 | 0.00 | 0.00 | 80 | |
| 20260507042626 | 15 | 260 | 0.0 | 0.0 | 0.00 | 0.00 | 0.00 | 79 | |
| 20260507042422 | 15 | 260 | 0.0 | 0.0 | 0.00 | 0.00 | 0.00 | 79 | |
| 20260507042222 | 15 | 260 | 0.0 | 0.0 | 0.00 | 0.00 | 0.00 | 79 | |
| 20260507042020 | 15 | 260 | 0.0 | 0.0 | 0.00 | 0.00 | 0.00 | 79 | |
| 20260507041818 | 15 | 260 | 0.0 | 3.2 | 0.00 | 0.00 | 0.00 | 79 | |
| 20260507041616 | 15 | 260 | 0.0 | 3.2 | 0.00 | 0.00 | 0.00 | 79 | |
| 20260507041414 | 15 | 260 | 0.0 | 3.2 | 0.00 | 0.00 | 0.00 | 79 | |
| 20260507041213 | 15 | 260 | 0.0 | 3.2 | 0.00 | 0.00 | 0.00 | 79 | |
| 20260507041011 | 15 | 260 | 0.0 | 3.2 | 0.00 | 0.00 | 0.00 | 79 | |
| 20260507040809 | 16 | 288 | 0.0 | 3.2 | 0.00 | 0.00 | 0.00 | 79 | |
| 20260507040607 | 16 | 310 | 0.0 | 3.2 | 0.00 | 0.00 | 0.00 | 79 | |
| 20260507040405 | 16 | 302 | 1.6 | 3.2 | 0.00 | 0.00 | 0.00 | 78 | |
| 20260507040201 | 16 | 302 | 3.2 | 1.6 | 0.00 | 0.00 | 0.00 | 78 | |
| 20260507040001 | 16 | 293 | 0.0 | 1.6 | 0.00 | 0.00 | 0.00 | 78 | |
| 20260507035759 | 16 | 305 | 0.0 | 3.2 | 0.00 | 0.00 | 0.00 | 77 | |
| 20260507035557 | 16 | 298 | 0.0 | 3.2 | 0.00 | 0.00 | 0.00 | 77 | |
| 20260507035355 | 16 | 298 | 0.0 | 3.2 | 0.00 | 0.00 | 0.00 | 77 | |
| 20260507034952 | 16 | 261 | 0.0 | 3.2 | 0.00 | 0.00 | 0.00 | 76 | |
| 20260507034750 | 16 | 261 | 0.0 | 1.6 | 0.00 | 0.00 | 0.00 | 75 | |
| 20260507034548 | 16 | 274 | 0.0 | 1.6 | 0.00 | 0.00 | 0.00 | 75 | |
| 20260507034347 | 16 | 274 | 0.0 | 1.6 | 0.00 | 0.00 | 0.00 | 75 | |
| 20260507033942 | 16 | 296 | 1.6 | 1.6 | 0.00 | 0.00 | 0.00 | 75 | |
| 20260507033740 | 16 | 257 | 0.0 | 0.0 | 0.00 | 0.00 | 0.00 | 75 | |
| 20260507033538 | 16 | 257 | 0.0 | 0.0 | 0.00 | 0.00 | 0.00 | 75 | |
| 20260507033336 | 16 | 257 | 0.0 | 0.0 | 0.00 | 0.00 | 0.00 | 75 | |
| 20260507033134 | 16 | 257 | 0.0 | 3.2 | 0.00 | 0.00 | 0.00 | 75 | |
| 20260507032932 | 16 | 257 | 0.0 | 3.2 | 0.00 | 0.00 | 0.00 | 74 | |
| 20260507032730 | 16 | 257 | 0.0 | 4.8 | 0.00 | 0.00 | 0.00 | 75 | |
| 20260507032529 | 16 | 257 | 0.0 | 4.8 | 0.00 | 0.00 | 0.00 | 75 | |
| 20260507032327 | 16 | 286 | 3.2 | 4.8 | 0.00 | 0.00 | 0.00 | 75 | |
| 20260507032125 | 16 | 288 | 1.6 | 1.6 | 0.00 | 0.00 | 0.00 | 74 | |
| 20260507031923 | 16 | 262 | 0.0 | 1.6 | 0.00 | 0.00 | 0.00 | 74 | |
| 20260507031721 | 16 | 240 | 0.0 | 0.0 | 0.00 | 0.00 | 0.00 | 74 | |
| 20260507031519 | 16 | 239 | 0.0 | 0.0 | 0.00 | 0.00 | 0.00 | 73 | |
| 20260507031315 | 16 | 239 | 0.0 | 0.0 | 0.00 | 0.00 | 0.00 | 73 | |
| 20260507031115 | 17 | 239 | 0.0 | 0.0 | 0.00 | 0.00 | 0.00 | 72 | |
| 20260507030913 | 17 | 239 | 0.0 | 0.0 | 0.00 | 0.00 | 0.00 | 72 | |
| 20260507030712 | 17 | 239 | 0.0 | 3.2 | 0.00 | 0.00 | 0.00 | 72 | |
| 20260507030510 | 17 | 239 | 0.0 | 3.2 | 0.00 | 0.00 | 0.00 | 71 | |
| 20260507025903 | 17 | 282 | 3.2 | 3.2 | 0.00 | 0.00 | 0.00 | 71 | |
| 20260507025702 | 17 | 279 | 1.6 | 0.0 | 0.00 | 0.00 | 0.00 | 71 |